Time;durP1;ratioP1;P1;durP2;ratioP2;P2;SDS_P1;SDS_P2;PMS_P1;PMS_P2;Temp;Humidity;BMP_temperature;BMP_pressure;BME280_temperature;BME280_humidity;BME280_pressure;Samples;Min_cycle;Max_cycle;Signal;HPM_P1;HPM_P2
2023/05/15 00:00:44;;;;;;;;;;;;;;;;;;4422314;32;20086;-74
2023/05/15 00:03:11;;;;;;;40.55;30.98;;;;;;;;;;4423331;32;19932;-74
2023/05/15 00:05:36;;;;;;;51.63;33.63;;;;;;;;;;4421844;32;20159;-74
2023/05/15 00:08:01;;;;;;;;;;;;;;;;;;4423360;32;20046;-74
2023/05/15 00:10:26;;;;;;;46.22;32.90;;;;;;;;;;4421771;32;19961;-74
2023/05/15 00:12:51;;;;;;;;;;;;;;;;;;4422213;32;20082;-74
2023/05/15 00:15:16;;;;;;;40.70;29.45;;;;;;;;;;4421533;32;19944;-74
2023/05/15 00:17:42;;;;;;;;;;;;;;;;;;4423398;32;20121;-74
2023/05/15 00:20:08;;;;;;;53.80;31.75;;;;;;;;;;4421616;32;20299;-72
2023/05/15 00:22:33;;;;;;;40.72;31.05;;;;;;;;;;4420329;32;20022;-73
2023/05/15 00:24:59;;;;;;;;;;;;;;;;;;4422903;32;20117;-73
2023/05/15 00:27:25;;;;;;;39.67;32.00;;;;;;;;;;4421104;32;19941;-73
2023/05/15 00:29:50;;;;;;;43.85;30.02;;;;;;;;;;4421423;32;20152;-73
2023/05/15 00:32:15;;;;;;;;;;;;;;;;;;4423591;32;20425;-73
2023/05/15 00:34:40;;;;;;;38.42;26.92;;;;;;;;;;4422596;32;20257;-73
2023/05/15 00:37:07;;;;;;;49.65;32.35;;;;;;;;;;4422188;32;20025;-73
2023/05/15 00:39:32;;;;;;;39.35;28.38;;;;;;;;;;4422989;32;20453;-73
2023/05/15 00:41:58;;;;;;;46.15;26.95;;;;;;;;;;4422692;32;20073;-73
2023/05/15 00:44:25;;;;;;;28.12;22.60;;;;;;;;;;4422362;32;20093;-73
2023/05/15 00:46:50;;;;;;;44.65;26.87;;;;;;;;;;4419477;32;20090;-73
2023/05/15 00:49:17;;;;;;;33.33;25.80;;;;;;;;;;4420843;32;20057;-73
2023/05/15 00:51:42;;;;;;;40.60;25.65;;;;;;;;;;4421728;32;20065;-73
2023/05/15 00:54:08;;;;;;;39.60;26.85;;;;;;;;;;4422579;32;20122;-73
2023/05/15 00:56:34;;;;;;;37.58;27.17;;;;;;;;;;4420368;32;20461;-73
2023/05/15 00:59:01;;;;;;;36.22;25.20;;;;;;;;;;4421894;32;20042;-73
2023/05/15 01:01:27;;;;;;;34.95;25.58;;;;;;;;;;4421150;32;20086;-73
2023/05/15 01:03:52;;;;;;;32.17;26.58;;;;;;;;;;4421137;32;20050;-73
2023/05/15 01:06:18;;;;;;;;;;;;;;;;;;4422259;32;20397;-74
2023/05/15 01:08:46;;;;;;;39.85;25.27;;;;;;;;;;4421513;32;19937;-74
2023/05/15 01:11:15;;;;;;;43.60;31.15;;;;;;;;;;4422304;32;20380;-74
2023/05/15 01:13:40;;;;;;;42.55;29.70;;;;;;;;;;4419271;32;20767;-74
2023/05/15 01:16:06;;;;;;;47.15;30.98;;;;;;;;;;4421326;32;20022;-73
2023/05/15 01:18:31;;;;;;;45.42;31.48;;;;;;;;;;4421876;32;20075;-73
2023/05/15 01:20:57;;;;;;;;;;;;;;;;;;4420976;32;20026;-73
2023/05/15 01:23:44;;;;;;;43.57;28.77;;;;;;;;;;4421317;32;19959;-73
2023/05/15 01:26:12;;;;;;;44.05;31.33;;;;;;;;;;4422127;32;20518;-73
2023/05/15 01:28:40;;;;;;;40.42;30.92;;;;;;;;;;4422581;32;20064;-74
2023/05/15 01:31:09;;;;;;;41.75;28.92;;;;;;;;;;4420951;32;20423;-73
2023/05/15 01:33:38;;;;;;;36.92;28.95;;;;;;;;;;4421982;32;20038;-73
2023/05/15 01:36:11;;;;;;;33.38;26.98;;;;;;;;;;4421552;32;20030;-73
2023/05/15 01:38:52;;;;;;;37.95;29.27;;;;;;;;;;4420893;32;20038;-73
2023/05/15 01:41:17;;;;;;;42.83;31.73;;;;;;;;;;4421657;32;20082;-73
2023/05/15 01:43:44;;;;;;;38.70;27.70;;;;;;;;;;4422743;32;20033;-73
2023/05/15 01:46:12;;;;;;;39.30;30.80;;;;;;;;;;4419081;32;20218;-73
2023/05/15 01:48:38;;;;;;;39.17;28.25;;;;;;;;;;4420608;32;20034;-74
2023/05/15 01:51:06;;;;;;;45.33;32.83;;;;;;;;;;4420293;32;20409;-73
2023/05/15 01:53:32;;;;;;;39.70;28.87;;;;;;;;;;4420102;32;20026;-73
2023/05/15 01:55:58;;;;;;;45.78;32.42;;;;;;;;;;4421032;32;20105;-74
2023/05/15 01:58:23;;;;;;;;;;;;;;;;;;4422050;32;20030;-74
2023/05/15 02:00:49;;;;;;;44.10;35.05;;;;;;;;;;4420091;32;19969;-73
2023/05/15 02:03:14;;;;;;;;;;;;;;;;;;4418843;32;20188;-74
2023/05/15 02:05:40;;;;;;;46.55;34.58;;;;;;;;;;4421540;32;19933;-73
2023/05/15 02:08:05;;;;;;;;;;;;;;;;;;4421257;32;20164;-73
2023/05/15 02:10:31;;;;;;;45.47;32.22;;;;;;;;;;4421811;32;20314;-74
2023/05/15 02:12:57;;;;;;;50.75;36.45;;;;;;;;;;4420129;32;20030;-73
2023/05/15 02:15:23;;;;;;;56.15;38.08;;;;;;;;;;4420245;32;20049;-74
2023/05/15 02:17:48;;;;;;;;;;;;;;;;;;4425542;32;20057;-73
2023/05/15 02:20:13;;;;;;;42.58;32.10;;;;;;;;;;4421942;32;19937;-73
2023/05/15 02:22:38;;;;;;;51.37;35.92;;;;;;;;;;4418645;32;20078;-72
2023/05/15 02:25:04;;;;;;;47.62;36.38;;;;;;;;;;4420639;32;20079;-73
2023/05/15 02:27:36;;;;;;;53.03;36.38;;;;;;;;;;4420308;32;20026;-74
2023/05/15 02:30:07;;;;;;;59.63;38.60;;;;;;;;;;4421787;32;20406;-73
2023/05/15 02:32:45;;;;;;;56.72;41.53;;;;;;;;;;4422016;32;20064;-74
2023/05/15 02:35:36;;;;;;;57.53;39.70;;;;;;;;;;4420147;32;20056;-73
2023/05/15 02:38:06;;;;;;;48.85;37.40;;;;;;;;;;4418063;32;20030;-73
2023/05/15 02:40:33;;;;;;;54.25;39.75;;;;;;;;;;4420579;32;20034;-74
2023/05/15 02:42:58;;;;;;;65.05;44.85;;;;;;;;;;4420780;32;20730;-74
2023/05/15 02:45:23;;;;;;;;;;;;;;;;;;4420548;32;20034;-73
2023/05/15 02:47:50;;;;;;;56.53;41.92;;;;;;;;;;4421416;32;19964;-74
2023/05/15 02:50:16;;;;;;;71.93;50.12;;;;;;;;;;4419416;32;20049;-74
2023/05/15 02:52:41;;;;;;;;;;;;;;;;;;4420649;32;20158;-73
2023/05/15 02:55:06;;;;;;;80.68;48.40;;;;;;;;;;4418435;32;19937;-72
2023/05/15 02:57:32;;;;;;;78.65;48.97;;;;;;;;;;4419117;32;20112;-73
2023/05/15 02:59:57;;;;;;;76.60;50.80;;;;;;;;;;4419863;32;20034;-72
2023/05/15 03:02:22;;;;;;;;;;;;;;;;;;4421714;32;20093;-73
2023/05/15 03:04:48;;;;;;;76.03;49.63;;;;;;;;;;4421178;32;19933;-73
2023/05/15 03:07:13;;;;;;;84.37;54.75;;;;;;;;;;4420272;32;20306;-73
2023/05/15 03:09:38;;;;;;;;;;;;;;;;;;4419468;32;20034;-73
2023/05/15 03:12:03;;;;;;;88.57;52.60;;;;;;;;;;4419910;32;19985;-72
2023/05/15 03:14:29;;;;;;;71.30;48.30;;;;;;;;;;4420989;32;20071;-73
2023/05/15 03:16:54;;;;;;;77.90;51.33;;;;;;;;;;4420924;32;20025;-73
2023/05/15 03:19:19;;;;;;;68.32;48.33;;;;;;;;;;4421062;32;20053;-73
2023/05/15 03:21:45;;;;;;;;;;;;;;;;;;4423695;32;20075;-73
2023/05/15 03:24:10;;;;;;;88.25;51.92;;;;;;;;;;4422374;32;20334;-73
2023/05/15 03:26:36;;;;;;;87.75;53.75;;;;;;;;;;4422995;32;20153;-73
2023/05/15 03:29:01;;;;;;;87.78;55.67;;;;;;;;;;4423263;32;20029;-73
2023/05/15 03:31:26;;;;;;;;;;;;;;;;;;4424343;32;20072;-73
2023/05/15 03:33:51;;;;;;;82.65;53.03;;;;;;;;;;4422017;32;19945;-73
2023/05/15 03:36:16;;;;;;;89.43;53.08;;;;;;;;;;4420873;32;20411;-73
2023/05/15 03:38:43;;;;;;;;;;;;;;;;;;4422785;32;20031;-73
2023/05/15 03:41:08;;;;;;;74.28;47.40;;;;;;;;;;4423610;32;19979;-72
2023/05/15 03:43:33;;;;;;;;;;;;;;;;;;4422923;32;20030;-73
2023/05/15 03:45:59;;;;;;;78.28;50.50;;;;;;;;;;4422494;32;20318;-73
2023/05/15 03:48:24;;;;;;;79.53;51.63;;;;;;;;;;4422171;32;20072;-74
2023/05/15 03:50:51;;;;;;;81.63;52.03;;;;;;;;;;4422146;32;20366;-73
2023/05/15 03:53:16;;;;;;;81.68;51.60;;;;;;;;;;4423685;32;20053;-73
2023/05/15 03:55:41;;;;;;;;;;;;;;;;;;4424048;32;20083;-73
2023/05/15 03:58:06;;;;;;;76.47;49.63;;;;;;;;;;4421528;32;19976;-73
2023/05/15 04:00:31;;;;;;;;;;;;;;;;;;4422946;32;20122;-73
2023/05/15 04:02:56;;;;;;;68.82;45.78;;;;;;;;;;4423180;32;19941;-73
2023/05/15 04:05:21;;;;;;;72.82;48.47;;;;;;;;;;4421880;32;20025;-73
2023/05/15 04:07:47;;;;;;;;;;;;;;;;;;4424112;32;20076;-73
2023/05/15 04:10:12;;;;;;;71.50;47.90;;;;;;;;;;4421566;32;19993;-72
2023/05/15 04:12:37;;;;;;;;;;;;;;;;;;4421867;32;20528;-73
2023/05/15 04:15:14;;;;;;;59.00;41.22;;;;;;;;;;4423119;32;19941;-72
2023/05/15 04:17:39;;;;;;;68.53;45.00;;;;;;;;;;4420192;32;20470;-73
2023/05/15 04:20:05;;;;;;;;;;;;;;;;;;4423563;32;20056;-72
2023/05/15 04:22:31;;;;;;;59.10;43.35;;;;;;;;;;4421792;32;19941;-73
2023/05/15 04:24:56;;;;;;;;;;;;;;;;;;4423148;32;20645;-73
2023/05/15 04:27:21;;;;;;;57.13;41.15;;;;;;;;;;4422844;32;20250;-73
2023/05/15 04:29:46;;;;;;;55.40;42.45;;;;;;;;;;4422380;32;20056;-73
2023/05/15 04:32:11;;;;;;;46.70;37.63;;;;;;;;;;4422793;32;20060;-73
2023/05/15 04:34:37;;;;;;;53.92;40.97;;;;;;;;;;4420409;32;20034;-73
2023/05/15 04:37:02;;;;;;;;;;;;;;;;;;4421373;32;20069;-74
2023/05/15 04:39:27;;;;;;;50.58;38.33;;;;;;;;;;4422311;32;20289;-74
2023/05/15 04:41:52;;;;;;;51.47;38.38;;;;;;;;;;4421294;32;20030;-74
2023/05/15 04:44:17;;;;;;;;;;;;;;;;;;4422790;32;20077;-74
2023/05/15 04:46:42;;;;;;;53.50;39.42;;;;;;;;;;4421063;32;19937;-74
2023/05/15 04:49:07;;;;;;;49.80;39.13;;;;;;;;;;4420874;32;20084;-73
2023/05/15 04:51:33;;;;;;;;;;;;;;;;;;4421932;32;20050;-72
2023/05/15 04:53:58;;;;;;;50.15;38.58;;;;;;;;;;4420967;32;19960;-73
2023/05/15 04:56:23;;;;;;;;;;;;;;;;;;4422329;32;20152;-73
2023/05/15 04:58:48;;;;;;;44.97;37.25;;;;;;;;;;4421290;32;20016;-73
2023/05/15 05:01:13;;;;;;;42.58;33.45;;;;;;;;;;4423316;32;20062;-73
2023/05/15 05:03:38;;;;;;;;;;;;;;;;;;4425704;32;20138;-73
2023/05/15 05:06:04;;;;;;;39.40;29.50;;;;;;;;;;4421247;32;20002;-73
2023/05/15 05:08:29;;;;;;;;;;;;;;;;;;4422471;32;20129;-73
2023/05/15 05:10:56;;;;;;;38.97;29.55;;;;;;;;;;4419671;32;19971;-73
2023/05/15 05:13:21;;;;;;;39.30;30.00;;;;;;;;;;4422118;32;20091;-73
2023/05/15 05:15:46;;;;;;;34.78;30.77;;;;;;;;;;4422049;32;20026;-74
2023/05/15 05:18:11;;;;;;;;;;;;;;;;;;4421786;32;20038;-74
2023/05/15 05:20:36;;;;;;;33.20;27.55;;;;;;;;;;4420335;32;19970;-73
2023/05/15 05:23:02;;;;;;;32.75;29.08;;;;;;;;;;4420986;32;20454;-74
2023/05/15 05:25:27;;;;;;;31.30;26.35;;;;;;;;;;4421219;32;20042;-72
2023/05/15 05:27:52;;;;;;;36.65;29.37;;;;;;;;;;4421565;32;20465;-74
2023/05/15 05:30:17;;;;;;;32.20;26.75;;;;;;;;;;4419953;32;20087;-73
2023/05/15 05:32:42;;;;;;;;;;;;;;;;;;4422228;32;20030;-74
2023/05/15 05:35:08;;;;;;;38.10;30.83;;;;;;;;;;4420913;32;19952;-73
2023/05/15 05:37:33;;;;;;;36.95;31.05;;;;;;;;;;4421001;32;20124;-74
2023/05/15 05:39:58;;;;;;;;;;;;;;;;;;4421598;32;20053;-74
2023/05/15 05:42:23;;;;;;;39.10;31.60;;;;;;;;;;4429814;32;19937;-73
2023/05/15 05:44:48;;;;;;;35.45;30.27;;;;;;;;;;4423248;32;20155;-73
2023/05/15 05:47:14;;;;;;;33.15;29.42;;;;;;;;;;4422054;32;20025;-74
2023/05/15 05:49:39;;;;;;;33.65;29.73;;;;;;;;;;4422028;32;20076;-73
2023/05/15 05:52:04;;;;;;;;;;;;;;;;;;4421767;32;20054;-74
2023/05/15 05:54:30;;;;;;;28.17;24.65;;;;;;;;;;4423105;32;19945;-74
2023/05/15 05:56:55;;;;;;;36.85;26.58;;;;;;;;;;4420797;32;20042;-74
2023/05/15 05:59:20;;;;;;;35.60;28.15;;;;;;;;;;4420623;32;20055;-74
2023/05/15 06:01:47;;;;;;;35.10;27.13;;;;;;;;;;4421801;32;20029;-74
2023/05/15 06:04:14;;;;;;;35.08;30.62;;;;;;;;;;4421621;32;20029;-74
2023/05/15 06:06:40;;;;;;;37.85;30.80;;;;;;;;;;4419861;32;20038;-74
2023/05/15 06:09:05;;;;;;;36.05;30.98;;;;;;;;;;4420435;32;20053;-75
2023/05/15 06:11:31;;;;;;;49.10;35.88;;;;;;;;;;4420056;32;20430;-74
2023/05/15 06:13:56;;;;;;;42.75;33.20;;;;;;;;;;4420125;32;20429;-74
2023/05/15 06:16:21;;;;;;;35.42;31.55;;;;;;;;;;4419817;32;20111;-74
2023/05/15 06:18:46;;;;;;;33.78;30.15;;;;;;;;;;4419599;32;20025;-74
2023/05/15 06:21:12;;;;;;;35.65;29.87;;;;;;;;;;4421295;32;20026;-74
2023/05/15 06:23:37;;;;;;;41.73;31.03;;;;;;;;;;4419028;32;20038;-73
2023/05/15 06:26:03;;;;;;;38.78;30.73;;;;;;;;;;4420884;32;20117;-75
2023/05/15 06:28:28;;;;;;;;;;;;;;;;;;4419679;32;20059;-75
2023/05/15 06:30:53;;;;;;;35.15;31.12;;;;;;;;;;4418064;32;19941;-74
2023/05/15 06:33:20;;;;;;;38.78;32.22;;;;;;;;;;4420975;32;20046;-76
2023/05/15 06:35:45;;;;;;;41.92;36.97;;;;;;;;;;4419282;32;20159;-73
2023/05/15 06:38:10;;;;;;;35.22;31.52;;;;;;;;;;4421210;32;20026;-73
2023/05/15 06:40:36;;;;;;;41.10;33.08;;;;;;;;;;4419723;32;20030;-73
2023/05/15 06:43:01;;;;;;;38.17;31.50;;;;;;;;;;4420776;32;20022;-73
2023/05/15 06:45:26;;;;;;;39.00;30.10;;;;;;;;;;4420057;32;20436;-73
2023/05/15 06:47:51;;;;;;;41.85;31.90;;;;;;;;;;4419931;32;20075;-73
2023/05/15 06:50:16;;;;;;;33.50;28.85;;;;;;;;;;4421124;32;20621;-74
2023/05/15 06:52:41;;;;;;;38.08;29.30;;;;;;;;;;4421561;32;20463;-74
2023/05/15 06:55:07;;;;;;;35.75;29.05;;;;;;;;;;4423667;32;20026;-74
2023/05/15 06:57:32;;;;;;;36.30;29.80;;;;;;;;;;4424315;32;20097;-73
2023/05/15 06:59:57;;;;;;;37.35;30.27;;;;;;;;;;4421312;32;20095;-74
2023/05/15 07:02:22;;;;;;;33.08;27.20;;;;;;;;;;4423573;32;20041;-75
2023/05/15 07:04:48;;;;;;;32.97;27.90;;;;;;;;;;4424552;32;20077;-73
2023/05/15 07:07:13;;;;;;;29.58;26.08;;;;;;;;;;4423748;32;20098;-74
2023/05/15 07:09:38;;;;;;;35.70;28.58;;;;;;;;;;4422558;32;20105;-74
2023/05/15 07:12:03;;;;;;;32.90;27.10;;;;;;;;;;4423958;32;20030;-74
2023/05/15 07:14:28;;;;;;;32.97;26.48;;;;;;;;;;4423132;32;20060;-74
2023/05/15 07:16:54;;;;;;;38.30;28.80;;;;;;;;;;4422932;32;20022;-75
2023/05/15 07:19:19;;;;;;;36.55;29.77;;;;;;;;;;4420845;32;20168;-74
2023/05/15 07:21:45;;;;;;;37.42;28.30;;;;;;;;;;4422752;32;20057;-74
2023/05/15 07:24:10;;;;;;;39.50;30.00;;;;;;;;;;4423160;32;20081;-73
2023/05/15 07:26:35;;;;;;;34.13;29.37;;;;;;;;;;4422299;32;20084;-73
2023/05/15 07:29:00;;;;;;;43.50;31.42;;;;;;;;;;4421932;32;20155;-74
2023/05/15 07:31:26;;;;;;;;;;;;;;;;;;4422299;32;20096;-73
2023/05/15 07:33:51;;;;;;;39.63;27.95;;;;;;;;;;4422782;32;19937;-73
2023/05/15 07:36:16;;;;;;;40.33;29.55;;;;;;;;;;4422293;32;20046;-74
2023/05/15 07:38:41;;;;;;;39.30;27.50;;;;;;;;;;4426811;32;20178;-74
2023/05/15 07:41:06;;;;;;;34.88;27.98;;;;;;;;;;4427069;32;20156;-74
2023/05/15 07:43:31;;;;;;;35.08;30.20;;;;;;;;;;4422977;32;20038;-73
2023/05/15 07:45:56;;;;;;;33.15;28.90;;;;;;;;;;4423702;32;20056;-74
2023/05/15 07:48:22;;;;;;;39.70;30.27;;;;;;;;;;4422832;32;20030;-75
2023/05/15 07:50:47;;;;;;;31.60;27.23;;;;;;;;;;4421452;32;20060;-74
2023/05/15 07:53:15;;;;;;;36.40;28.40;;;;;;;;;;4421172;32;20022;-74
2023/05/15 07:55:40;;;;;;;35.35;31.55;;;;;;;;;;4421388;32;20400;-73
2023/05/15 07:58:06;;;;;;;38.03;29.77;;;;;;;;;;4422184;32;20064;-75
2023/05/15 08:00:32;;;;;;;35.30;31.30;;;;;;;;;;4421623;32;20034;-75
2023/05/15 08:02:58;;;;;;;38.17;31.80;;;;;;;;;;4421464;32;20064;-74
2023/05/15 08:05:23;;;;;;;39.38;31.73;;;;;;;;;;4422415;32;20061;-74
2023/05/15 08:07:48;;;;;;;41.65;33.13;;;;;;;;;;4423043;32;20081;-73
2023/05/15 08:10:13;;;;;;;45.38;32.70;;;;;;;;;;4421634;32;20439;-74
2023/05/15 08:12:44;;;;;;;41.00;31.58;;;;;;;;;;4422954;32;20407;-73
2023/05/15 08:15:10;;;;;;;37.00;30.77;;;;;;;;;;4422514;32;20407;-74
2023/05/15 08:17:35;;;;;;;40.42;30.27;;;;;;;;;;4421995;32;20075;-74
2023/05/15 08:20:00;;;;;;;36.28;29.30;;;;;;;;;;4422092;32;20022;-75
2023/05/15 08:22:25;;;;;;;34.17;28.98;;;;;;;;;;4421200;32;20026;-74
2023/05/15 08:24:50;;;;;;;42.70;30.37;;;;;;;;;;4423034;32;20046;-75
2023/05/15 08:27:16;;;;;;;37.88;30.80;;;;;;;;;;4421567;32;20058;-74
2023/05/15 08:29:41;;;;;;;40.85;32.85;;;;;;;;;;4422875;32;20026;-74
2023/05/15 08:32:07;;;;;;;36.38;31.40;;;;;;;;;;4422011;32;20426;-74
2023/05/15 08:34:32;;;;;;;34.70;30.02;;;;;;;;;;4421673;32;20469;-73
2023/05/15 08:36:58;;;;;;;37.35;29.45;;;;;;;;;;4422771;32;20058;-74
2023/05/15 08:39:23;;;;;;;36.90;31.08;;;;;;;;;;4421335;32;20048;-75
2023/05/15 08:41:51;;;;;;;38.78;31.27;;;;;;;;;;4421634;32;20130;-74
2023/05/15 08:44:16;;;;;;;45.50;34.28;;;;;;;;;;4420344;32;20022;-74
2023/05/15 08:46:42;;;;;;;42.55;34.53;;;;;;;;;;4423013;32;20080;-74
2023/05/15 08:49:30;;;;;;;49.35;36.50;;;;;;;;;;4420839;32;20056;-74
2023/05/15 08:51:55;;;;;;;42.88;35.63;;;;;;;;;;4422497;32;20072;-75
2023/05/15 08:54:21;;;;;;;46.35;36.88;;;;;;;;;;4422719;32;20050;-75
2023/05/15 08:56:46;;;;;;;44.28;35.53;;;;;;;;;;4420881;32;20057;-72
2023/05/15 08:59:11;;;;;;;45.92;37.70;;;;;;;;;;4422399;32;20079;-74
2023/05/15 09:01:36;;;;;;;46.15;38.10;;;;;;;;;;4421071;32;20022;-74
2023/05/15 09:04:02;;;;;;;48.28;37.90;;;;;;;;;;4421380;32;20046;-74
2023/05/15 09:06:27;;;;;;;50.97;38.42;;;;;;;;;;4422151;32;20057;-74
2023/05/15 09:08:54;;;;;;;46.78;37.25;;;;;;;;;;4419482;32;20057;-75
2023/05/15 09:11:21;;;;;;;54.15;41.63;;;;;;;;;;4420271;32;20034;-74
2023/05/15 09:13:46;;;;;;;49.35;39.38;;;;;;;;;;4422614;32;20415;-75
2023/05/15 09:16:11;;;;;;;52.25;41.10;;;;;;;;;;4420088;32;20081;-75
2023/05/15 09:18:37;;;;;;;51.03;38.47;;;;;;;;;;4420476;32;20079;-74
2023/05/15 09:21:23;;;;;;;57.05;43.42;;;;;;;;;;4419237;32;20034;-74
2023/05/15 09:23:48;;;;;;;53.15;43.60;;;;;;;;;;4420880;32;20026;-74
2023/05/15 09:26:13;;;;;;;58.25;43.10;;;;;;;;;;4421879;32;20071;-74
2023/05/15 09:28:39;;;;;;;54.47;43.87;;;;;;;;;;4420404;32;20090;-74
2023/05/15 09:31:04;;;;;;;63.30;45.28;;;;;;;;;;4421907;32;20086;-74
2023/05/15 09:33:34;;;;;;;65.00;46.37;;;;;;;;;;4421821;32;20034;-73
2023/05/15 09:36:00;;;;;;;68.53;47.58;;;;;;;;;;4420355;32;20077;-73
2023/05/15 09:38:25;;;;;;;67.50;46.63;;;;;;;;;;4422395;32;20052;-75
2023/05/15 09:40:59;;;;;;;67.45;48.83;;;;;;;;;;4421877;32;20046;-74
2023/05/15 09:43:26;;;;;;;62.88;45.45;;;;;;;;;;4422505;32;20411;-73
2023/05/15 09:45:51;;;;;;;70.47;47.75;;;;;;;;;;4420812;32;20404;-74
2023/05/15 09:48:16;;;;;;;68.60;47.95;;;;;;;;;;4421975;32;20041;-74
2023/05/15 09:50:42;;;;;;;70.50;47.85;;;;;;;;;;4420923;32;20085;-74
2023/05/15 09:53:10;;;;;;;67.25;46.65;;;;;;;;;;4420602;32;20034;-73
2023/05/15 09:55:35;;;;;;;61.83;44.33;;;;;;;;;;4420966;32;20026;-74
2023/05/15 09:58:05;;;;;;;59.63;43.15;;;;;;;;;;4421627;32;20120;-74
2023/05/15 10:00:30;;;;;;;65.32;45.28;;;;;;;;;;4422698;32;20461;-73
2023/05/15 10:02:57;;;;;;;65.80;46.30;;;;;;;;;;4420774;32;20027;-74
2023/05/15 10:05:25;;;;;;;56.95;43.25;;;;;;;;;;4420278;32;20065;-76
2023/05/15 10:07:52;;;;;;;55.85;41.50;;;;;;;;;;4419067;32;20423;-74
2023/05/15 10:10:18;;;;;;;51.15;39.67;;;;;;;;;;4419107;32;20367;-75
2023/05/15 10:12:43;;;;;;;47.45;37.42;;;;;;;;;;4420852;32;20022;-75
2023/05/15 10:15:08;;;;;;;49.50;38.90;;;;;;;;;;4422943;32;20070;-74
2023/05/15 10:17:35;;;;;;;51.78;41.88;;;;;;;;;;4421293;32;20468;-74
2023/05/15 10:20:00;;;;;;;46.53;36.45;;;;;;;;;;4419027;32;20112;-76
2023/05/15 10:22:28;;;;;;;44.85;36.25;;;;;;;;;;4420711;32;20030;-74
2023/05/15 10:25:01;;;;;;;47.05;35.50;;;;;;;;;;4422102;32;20395;-74
2023/05/15 10:27:26;;;;;;;45.75;36.35;;;;;;;;;;4420345;32;20422;-74
2023/05/15 10:29:53;;;;;;;43.03;32.03;;;;;;;;;;4423755;32;20022;-74
2023/05/15 10:32:18;;;;;;;36.92;30.70;;;;;;;;;;4422814;32;20113;-74
2023/05/15 10:34:44;;;;;;;36.35;29.65;;;;;;;;;;4423561;32;20026;-74
2023/05/15 10:37:09;;;;;;;35.40;29.73;;;;;;;;;;4423259;32;20327;-74
2023/05/15 10:39:36;;;;;;;35.47;29.95;;;;;;;;;;4423458;32;20030;-74
2023/05/15 10:42:02;;;;;;;33.92;27.55;;;;;;;;;;4424605;32;20030;-74
2023/05/15 10:44:27;;;;;;;35.67;29.80;;;;;;;;;;4422898;32;20030;-74
2023/05/15 10:46:54;;;;;;;30.83;26.10;;;;;;;;;;4424412;32;20053;-75
2023/05/15 10:49:19;;;;;;;32.13;27.90;;;;;;;;;;4424126;32;20081;-75
2023/05/15 10:51:45;;;;;;;36.92;29.33;;;;;;;;;;4423773;32;20091;-74
2023/05/15 10:54:10;;;;;;;29.85;25.30;;;;;;;;;;4424202;32;20037;-74
2023/05/15 10:56:36;;;;;;;27.48;22.13;;;;;;;;;;4425015;32;20063;-74
2023/05/15 10:59:06;;;;;;;26.92;23.40;;;;;;;;;;4425262;32;20157;-74
2023/05/15 11:01:32;;;;;;;25.70;21.27;;;;;;;;;;4424810;32;20042;-74
2023/05/15 11:04:04;;;;;;;21.48;18.00;;;;;;;;;;4422688;32;20022;-74
2023/05/15 11:06:31;;;;;;;23.58;21.05;;;;;;;;;;4424368;32;20160;-76
2023/05/15 11:09:16;;;;;;;22.52;18.98;;;;;;;;;;4420436;32;20435;-76
2023/05/15 11:11:50;;;;;;;26.50;20.52;;;;;;;;;;4419528;32;20066;-74
2023/05/15 11:14:15;;;;;;;25.30;19.75;;;;;;;;;;4422570;32;21245;-75
2023/05/15 11:16:53;;;;;;;25.42;19.05;;;;;;;;;;4423092;32;20362;-75
2023/05/15 11:19:21;;;;;;;25.00;19.50;;;;;;;;;;4423513;32;20030;-74
2023/05/15 11:21:46;;;;;;;19.77;17.65;;;;;;;;;;4424581;32;20030;-74
2023/05/15 11:24:11;;;;;;;20.05;16.30;;;;;;;;;;4427435;32;20064;-74
2023/05/15 11:26:41;;;;;;;12.88;11.55;;;;;;;;;;4415183;32;20030;-76
2023/05/15 11:29:16;;;;;;;15.20;10.50;;;;;;;;;;4427321;32;20030;-74
2023/05/15 11:31:41;;;;;;;12.48;9.70;;;;;;;;;;4429668;32;20049;-76
2023/05/15 11:34:06;;;;;;;13.95;9.18;;;;;;;;;;4423775;32;20064;-75
2023/05/15 11:36:32;;;;;;;10.43;7.80;;;;;;;;;;4423311;32;20085;-74
2023/05/15 11:38:58;;;;;;;10.68;8.07;;;;;;;;;;4421667;32;20068;-74
2023/05/15 11:41:30;;;;;;;8.52;7.43;;;;;;;;;;4422111;32;20060;-74
2023/05/15 11:43:56;;;;;;;11.25;6.90;;;;;;;;;;4406299;32;20031;-73
2023/05/15 11:46:21;;;;;;;9.80;7.00;;;;;;;;;;4408478;32;20022;-75
2023/05/15 11:48:46;;;;;;;11.15;5.80;;;;;;;;;;4407770;32;20047;-74
2023/05/15 11:51:16;;;;;;;14.90;7.70;;;;;;;;;;4414086;32;20042;-75
2023/05/15 11:53:41;;;;;;;14.93;8.60;;;;;;;;;;4422511;32;20034;-75
2023/05/15 11:56:11;;;;;;;12.77;8.93;;;;;;;;;;4422987;32;20025;-75
2023/05/15 11:58:37;;;;;;;17.98;10.63;;;;;;;;;;4420960;32;20025;-77
2023/05/15 12:01:02;;;;;;;19.02;10.82;;;;;;;;;;4420711;32;20056;-76
2023/05/15 12:03:34;;;;;;;25.25;11.27;;;;;;;;;;4420682;32;20025;-74
2023/05/15 12:06:00;;;;;;;25.20;11.57;;;;;;;;;;4420887;32;20097;-74
2023/05/15 12:08:30;;;;;;;23.20;11.38;;;;;;;;;;4423158;32;20026;-74
2023/05/15 12:10:57;;;;;;;26.98;11.12;;;;;;;;;;4423223;32;20048;-75
2023/05/15 12:13:23;;;;;;;20.08;9.77;;;;;;;;;;4422570;32;20030;-74
2023/05/15 12:15:48;;;;;;;28.27;10.00;;;;;;;;;;4420260;32;20026;-75
2023/05/15 12:18:13;;;;;;;15.98;9.90;;;;;;;;;;4421267;32;20026;-74
2023/05/15 12:20:43;;;;;;;22.50;10.00;;;;;;;;;;4417942;32;20131;-74
2023/05/15 12:23:08;;;;;;;14.63;9.45;;;;;;;;;;4419315;32;20394;-75
2023/05/15 12:25:34;;;;;;;16.83;7.35;;;;;;;;;;4420135;32;20065;-74
2023/05/15 12:28:00;;;;;;;16.33;8.70;;;;;;;;;;4422010;32;20093;-75
2023/05/15 12:30:26;;;;;;;13.40;7.60;;;;;;;;;;4422702;32;20034;-74
2023/05/15 12:32:51;;;;;;;10.82;6.70;;;;;;;;;;4420433;32;20384;-74
2023/05/15 12:35:16;;;;;;;15.23;7.07;;;;;;;;;;4423404;32;20355;-75
2023/05/15 12:37:42;;;;;;;12.50;6.22;;;;;;;;;;4423230;32;20072;-74
2023/05/15 12:40:10;;;;;;;15.30;6.15;;;;;;;;;;4421980;32;20026;-74
2023/05/15 12:42:39;;;;;;;20.40;6.82;;;;;;;;;;4422754;32;20076;-74
2023/05/15 12:45:11;;;;;;;25.98;7.30;;;;;;;;;;4422360;32;20063;-74
2023/05/15 12:47:36;;;;;;;25.83;7.30;;;;;;;;;;4424418;32;20033;-75
2023/05/15 12:50:10;;;;;;;23.92;7.95;;;;;;;;;;4422191;32;20026;-74
2023/05/15 12:52:35;;;;;;;18.42;6.87;;;;;;;;;;4421845;32;20477;-74
2023/05/15 12:55:00;;;;;;;17.00;6.22;;;;;;;;;;4422950;32;20026;-74
2023/05/15 12:57:26;;;;;;;20.50;6.45;;;;;;;;;;4420963;32;20033;-74
2023/05/15 12:59:51;;;;;;;17.58;6.15;;;;;;;;;;4420967;32;20119;-73
2023/05/15 13:02:16;;;;;;;16.92;5.07;;;;;;;;;;4421435;32;20057;-74
2023/05/15 13:04:41;;;;;;;12.73;4.90;;;;;;;;;;4420741;32;20025;-75
2023/05/15 13:07:07;;;;;;;15.73;5.40;;;;;;;;;;4422340;32;20433;-75
2023/05/15 13:09:34;;;;;;;12.35;4.87;;;;;;;;;;4421571;32;20030;-75
2023/05/15 13:12:02;;;;;;;17.42;5.18;;;;;;;;;;4419620;32;20065;-75
2023/05/15 13:14:31;;;;;;;14.70;4.93;;;;;;;;;;4421122;32;20411;-75
2023/05/15 13:16:58;;;;;;;16.73;4.75;;;;;;;;;;4421201;32;20060;-74
2023/05/15 13:19:23;;;;;;;14.35;5.15;;;;;;;;;;4420759;32;20022;-75
2023/05/15 13:21:49;;;;;;;16.27;5.32;;;;;;;;;;4420503;32;20125;-75
2023/05/15 13:24:14;;;;;;;16.77;4.85;;;;;;;;;;4421360;32;20095;-74
2023/05/15 13:26:40;;;;;;;17.60;5.75;;;;;;;;;;4419453;32;20033;-74
2023/05/15 13:29:05;;;;;;;16.52;5.47;;;;;;;;;;4421175;32;20439;-74
2023/05/15 13:31:31;;;;;;;20.65;5.30;;;;;;;;;;4420825;32;20144;-74
2023/05/15 13:33:56;;;;;;;16.27;4.62;;;;;;;;;;4419673;32;20097;-74
2023/05/15 13:36:21;;;;;;;16.12;4.95;;;;;;;;;;4419947;32;20030;-74
2023/05/15 13:38:46;;;;;;;13.23;4.47;;;;;;;;;;4422042;32;20053;-75
2023/05/15 13:41:11;;;;;;;16.77;4.65;;;;;;;;;;4421823;32;20030;-76
2023/05/15 13:43:36;;;;;;;16.87;5.15;;;;;;;;;;4421787;32;20427;-74
2023/05/15 13:46:02;;;;;;;13.38;4.85;;;;;;;;;;4422692;32;20060;-74
2023/05/15 13:48:27;;;;;;;16.62;4.32;;;;;;;;;;4421323;32;20407;-74
2023/05/15 13:50:52;;;;;;;12.93;4.43;;;;;;;;;;4422050;32;20075;-75
2023/05/15 13:53:17;;;;;;;17.33;4.87;;;;;;;;;;4420640;32;20033;-74
2023/05/15 13:55:44;;;;;;;11.38;4.70;;;;;;;;;;4422245;32;20068;-74
2023/05/15 13:58:10;;;;;;;10.85;3.85;;;;;;;;;;4421796;32;20069;-74
2023/05/15 14:00:36;;;;;;;12.43;4.80;;;;;;;;;;4421300;32;20038;-75
2023/05/15 14:03:01;;;;;;;7.37;3.22;;;;;;;;;;4420128;32;20420;-75
2023/05/15 14:05:26;;;;;;;5.85;2.97;;;;;;;;;;4421727;32;20068;-76
2023/05/15 14:07:51;;;;;;;8.63;3.58;;;;;;;;;;4421804;32;20026;-74
2023/05/15 14:10:16;;;;;;;7.68;3.40;;;;;;;;;;4421537;32;20100;-74
2023/05/15 14:12:42;;;;;;;8.50;3.35;;;;;;;;;;4420385;32;20026;-75
2023/05/15 14:15:07;;;;;;;6.32;3.20;;;;;;;;;;4420840;32;20034;-73
2023/05/15 14:17:33;;;;;;;4.93;2.95;;;;;;;;;;4420113;32;20072;-74
2023/05/15 14:19:58;;;;;;;9.10;3.95;;;;;;;;;;4421818;32;20083;-74
2023/05/15 14:22:23;;;;;;;6.85;3.00;;;;;;;;;;4421675;32;20038;-75
2023/05/15 14:24:49;;;;;;;8.75;3.05;;;;;;;;;;4420282;32;20065;-74
2023/05/15 14:27:15;;;;;;;7.60;3.25;;;;;;;;;;4420286;32;20026;-74